Happy Valentine's Day! 

Flight Track Log - Related Links

Times and Time Zones

All times are in EDT time to prevent confusion due to time zone crossing. See the N1944E flight status page for this flight to view local times or setup timezone preferences in your user account.


Time Position Orientation Groundspeed Altitude Reporting Facility
EDT Latitude Longitude Course Direction KTS MPH feet Rate Location/Type
Wed 07:13:56 PM 43.5464 -110.7422 166° South 155 178 8,400  Level Salt Lake Center
Wed 07:14:58 PM 43.5678 -110.6975 57° Northeast 159 183 9,600 1,113 Climbing Salt Lake Center
Wed 07:15:00 PM 43.7606 -110.4314 52° Northeast  Level FlightAware Approximate
Wed 07:16:00 PM 43.7883 -110.3830 52° Northeast  Level FlightAware Approximate
Wed 07:16:00 PM 43.6042 -110.6683 30° Northeast 158 182 10,700  Level Salt Lake Center
Wed 07:17:00 PM 43.8160 -110.3345 52° Northeast  Level FlightAware Approximate
Wed 07:17:02 PM 43.6389 -110.6347 35° Northeast 154 177 12,100  Level Salt Lake Center
Wed 07:18:00 PM 43.8414 -110.2838 55° Northeast  Level FlightAware Approximate
Wed 07:18:04 PM 43.6814 -110.5889 38° Northeast 159 183 13,300  Level Salt Lake Center
Wed 07:19:06 PM 43.7106 -110.5378 52° Northeast 176 203 14,400 968 Climbing Salt Lake Center
Wed 07:20:08 PM 43.7406 -110.4844 52° Northeast 175 201 15,300 919 Climbing Salt Lake Center
Wed 07:21:10 PM 43.7697 -110.4286 54° Northeast 177 204 16,300 871 Climbing Salt Lake Center
Wed 07:22:12 PM 43.8022 -110.3753 50° Northeast 180 207 17,100 339 Climbing Salt Lake Center
Wed 07:23:14 PM 43.8394 -110.3111 51° Northeast 204 235 17,000 -48 Descending Salt Lake Center
Wed 07:24:16 PM 43.8831 -110.2303 53° Northeast 218 251 17,000  Level Salt Lake Center
Wed 07:25:18 PM 43.9161 -110.1658 55° Northeast 215 247 17,000  Level Salt Lake Center
Wed 07:26:20 PM 43.9550 -110.0883 55° Northeast 218 251 17,000  Level Salt Lake Center
Wed 07:27:22 PM 43.9867 -110.0206 57° Northeast 219 252 17,000  Level Salt Lake Center
Wed 07:28:24 PM 44.0167 -109.9467 61° Northeast 226 260 17,000 48 Level Salt Lake Center
Wed 07:29:26 PM 44.0544 -109.8669 57° Northeast 223 257 17,100  Climbing Salt Lake Center
Wed 07:30:28 PM 44.0894 -109.8056 52° Northeast 216 249 17,000 -48 Descending Salt Lake Center
Wed 07:31:30 PM 44.1311 -109.7297 53° Northeast 219 252 17,000  Level Salt Lake Center
Wed 07:32:32 PM 44.1675 -109.6703 50° Northeast 214 246 17,000  Level Salt Lake Center
Wed 07:33:34 PM 44.2092 -109.5942 53° Northeast 218 251 17,000  Level Salt Lake Center
Wed 07:34:36 PM 44.2436 -109.5294 53° Northeast 219 252 17,000  Level Salt Lake Center
Wed 07:35:38 PM 44.2911 -109.4625 45° Northeast 217 250 17,000 -290 Level Salt Lake Center
Wed 07:36:40 PM 44.3292 -109.3942 52° Northeast 221 254 16,400 -823 Descending Salt Lake Center
Wed 07:37:42 PM 44.3669 -109.3175 55° Northeast 233 268 15,300 -1,161 Descending Salt Lake Center
Wed 07:38:44 PM 44.4078 -109.2389 54° Northeast 245 282 14,000 -1,113 Descending Salt Lake Center
Wed 07:39:46 PM 44.4497 -109.1653 51° Northeast 244 281 13,000 -1,171 Descending Salt Lake Center
Wed 07:40:47 PM 44.5003 -109.0819 50° Northeast 239 275 11,600 -976 Descending Salt Lake Center
Wed 07:41:49 PM 44.5381 -109.0125 53° Northeast 233 268 11,000 -581 Descending Salt Lake Center

Login

Don't have an account? Register now (free) for customized features, flight alerts, and more!